CheckWX is a tool to help pilots better visualize weather data.  It is not intended as a substitute for an official pre-flight weather briefing.

05:38:11 UTC

KCOF METAR
Patrick AFB Airport
Cocoa Beach, Florida, USA
Current

42 mins ago

KCOF 200456Z AUTO 14007KT 10SM CLR 21/21 A3017 RMK AO2 SLP221 T02060206 402670198 $
Observed
Feb-20 @ 04:56 UTC
Wind
  • 140° at 7 KTS
Visibility
16,093 meters
Flight Rules
VFR
Cloud Levels
  • Clear skies
Temperature
21°C / 70°F
Dewpoint
21°C / 70°F
Humidity
100%
Altimeter
30.17" Hg
Pressure
1022.1 hPa
Previous

2 hours ago

KCOF 200356Z AUTO 12007KT 10SM CLR 21/21 A3018 RMK AO2 SLP224
Observed
Feb-20 @ 03:56 UTC
Wind
  • 120° at 7 KTS
Visibility
16,093 meters
Flight Rules
VFR
Cloud Levels
  • Clear skies
Temperature
21°C / 70°F
Dewpoint
21°C / 70°F
Humidity
100%
Altimeter
30.18" Hg
Pressure
1022.4 hPa
Previous

3 hours ago

KCOF 200256Z AUTO 10007KT 10SM CLR 21/21 A3018 RMK AO2 SLP224 T02120212 52013 $
Observed
Feb-20 @ 02:56 UTC
Wind
  • 100° at 7 KTS
Visibility
16,093 meters
Flight Rules
VFR
Cloud Levels
  • Clear skies
Temperature
21°C / 70°F
Dewpoint
21°C / 70°F
Humidity
100%
Altimeter
30.18" Hg
Pressure
1022.4 hPa